Time;durP1;ratioP1;P1;durP2;ratioP2;P2;SDS_P1;SDS_P2;PMS_P1;PMS_P2;Temp;Humidity;BMP_temperature;BMP_pressure;BME280_temperature;BME280_humidity;BME280_pressure;Samples;Min_cycle;Max_cycle;Signal;HPM_P1;HPM_P2
2022/10/24 00:00:42;;;;;;;2.05;1.80;;;13.50;99.90;;;;;;5093139;28;20217;-75
2022/10/24 00:03:09;;;;;;;2.30;2.10;;;13.50;99.90;;;;;;5082598;28;20575;-75
2022/10/24 00:05:37;;;;;;;1.75;1.65;;;13.50;99.90;;;;;;5092621;28;20240;-76
2022/10/24 00:08:05;;;;;;;1.98;1.88;;;13.40;99.90;;;;;;5093864;28;20224;-77
2022/10/24 00:10:35;;;;;;;1.80;1.70;;;13.40;99.90;;;;;;5077373;28;20234;-78
2022/10/24 00:13:06;;;;;;;2.55;1.80;;;13.40;99.90;;;;;;5093383;28;20198;-76
2022/10/24 00:15:34;;;;;;;2.00;1.90;;;13.40;99.90;;;;;;5092815;28;20241;-75
2022/10/24 00:18:01;;;;;;;1.95;1.85;;;13.40;99.90;;;;;;5092900;28;20304;-74
2022/10/24 00:20:29;;;;;;;2.00;1.90;;;13.30;99.90;;;;;;5092319;28;20209;-74
2022/10/24 00:22:56;;;;;;;1.95;1.85;;;13.30;99.90;;;;;;5095456;28;20193;-77
2022/10/24 00:25:23;;;;;;;1.70;1.60;;;13.30;99.90;;;;;;5093642;28;20637;-76
2022/10/24 00:27:51;;;;;;;2.00;1.90;;;13.30;99.90;;;;;;5092700;28;20729;-76
2022/10/24 00:30:20;;;;;;;1.90;1.80;;;13.30;99.90;;;;;;5090650;28;20216;-76
2022/10/24 00:32:47;;;;;;;2.05;1.95;;;13.30;99.90;;;;;;5093952;28;20198;-80
2022/10/24 00:35:15;;;;;;;2.10;2.00;;;13.30;99.90;;;;;;5091816;28;20254;-80
2022/10/24 00:37:43;;;;;;;2.30;2.10;;;13.30;99.90;;;;;;5078709;28;20221;-75
2022/10/24 00:40:16;;;;;;;1.70;1.60;;;13.20;99.90;;;;;;5093035;28;20266;-77
2022/10/24 00:42:43;;;;;;;1.83;1.73;;;13.20;99.90;;;;;;5090378;28;20201;-81
2022/10/24 00:45:45;;;;;;;1.73;1.63;;;13.20;99.90;;;;;;5086078;28;20216;-81
2022/10/24 00:48:21;;;;;;;2.90;2.15;;;13.20;99.90;;;;;;5090366;28;20304;-80
2022/10/24 00:50:52;;;;;;;2.45;2.35;;;13.20;99.90;;;;;;5085924;28;20224;-79
2022/10/24 00:53:21;;;;;;;2.17;2.08;;;13.20;99.90;;;;;;5086831;28;20213;-83
2022/10/24 00:55:53;;;;;;;1.92;1.83;;;13.20;99.90;;;;;;5079028;28;20217;-81
2022/10/24 00:58:23;;;;;;;2.42;2.30;;;13.10;99.90;;;;;;5092283;28;20209;-79
2022/10/24 01:00:53;;;;;;;1.90;1.80;;;13.10;99.90;;;;;;5090435;28;20721;-79
2022/10/24 01:03:21;;;;;;;2.25;2.05;;;13.10;99.90;;;;;;5089261;28;20198;-78
2022/10/24 01:06:17;;;;;;;2.05;1.95;;;13.00;99.90;;;;;;5089189;28;20222;-79
2022/10/24 01:08:47;;;;;;;2.55;2.35;;;13.00;99.90;;;;;;5088568;28;20217;-79
2022/10/24 01:11:27;;;;;;;2.70;2.50;;;13.00;99.90;;;;;;5082740;28;20243;-81
2022/10/24 01:14:03;;;;;;;2.33;2.22;;;13.00;99.90;;;;;;5087333;28;20208;-79
2022/10/24 01:16:41;;;;;;;2.10;2.00;;;13.00;99.90;;;;;;5088335;28;20223;-77
2022/10/24 01:19:27;;;;;;;2.42;2.33;;;13.00;99.90;;;;;;5059512;28;20210;-77
2022/10/24 01:21:58;;;;;;;2.40;2.30;;;13.00;99.90;;;;;;5089979;28;20218;-75
2022/10/24 01:24:41;;;;;;;2.30;2.10;;;13.00;99.90;;;;;;5089313;28;20197;-78
2022/10/24 01:27:31;;;;;;;2.20;2.00;;;13.00;99.90;;;;;;5088529;28;20197;-77
2022/10/24 01:30:07;;;;;;;2.83;2.30;;;13.00;99.90;;;;;;5085227;28;20217;-77
2022/10/24 01:32:52;;;;;;;2.38;2.17;;;13.00;99.90;;;;;;5071596;28;20247;-80
2022/10/24 01:35:39;;;;;;;2.42;2.22;;;13.00;99.90;;;;;;5081218;28;20304;-78
2022/10/24 01:38:14;;;;;;;2.00;1.90;;;13.00;99.90;;;;;;5081510;28;20217;-74
2022/10/24 01:40:50;;;;;;;2.83;2.55;;;13.00;99.90;;;;;;5085728;28;20217;-76
2022/10/24 01:43:22;;;;;;;2.20;2.00;;;13.00;99.90;;;;;;5087857;28;20209;-75
2022/10/24 01:45:56;;;;;;;2.42;2.22;;;13.00;99.90;;;;;;5086393;28;20217;-76
2022/10/24 01:48:26;;;;;;;2.28;2.13;;;13.00;99.90;;;;;;5087323;28;20244;-74
2022/10/24 01:50:56;;;;;;;2.00;1.90;;;13.00;99.90;;;;;;5083294;28;20225;-77
2022/10/24 01:53:28;;;;;;;2.30;2.20;;;13.00;99.90;;;;;;5075365;28;20198;-74
2022/10/24 01:55:57;;;;;;;2.35;2.22;;;13.00;99.90;;;;;;5071982;28;20217;-75
2022/10/24 01:58:24;;;;;;;2.13;2.03;;;13.10;99.90;;;;;;5074802;28;20214;-76
2022/10/24 02:00:58;;;;;;;2.50;2.30;;;13.10;99.90;;;;;;5086336;28;20233;-75
2022/10/24 02:03:31;;;;;;;2.25;2.15;;;13.10;99.90;;;;;;5088437;28;20287;-75
2022/10/24 02:06:03;;;;;;;2.58;2.38;;;13.10;99.90;;;;;;5088007;28;20236;-76
2022/10/24 02:08:35;;;;;;;2.67;2.47;;;13.10;99.90;;;;;;5071614;28;20221;-76
2022/10/24 02:11:06;;;;;;;2.72;2.42;;;13.10;99.90;;;;;;5080892;28;20732;-74
2022/10/24 02:13:39;;;;;;;2.60;2.40;;;13.10;99.90;;;;;;5083335;28;20202;-75
2022/10/24 02:16:09;;;;;;;2.45;2.25;;;13.10;99.90;;;;;;5084581;28;20213;-73
2022/10/24 02:18:39;;;;;;;2.70;2.50;;;13.10;99.90;;;;;;5061207;28;20214;-75
2022/10/24 02:21:15;;;;;;;2.20;2.10;;;13.10;99.90;;;;;;5060788;28;20221;-73
2022/10/24 02:23:52;;;;;;;2.70;2.50;;;13.20;99.90;;;;;;5089651;28;20217;-73
2022/10/24 02:26:30;;;;;;;2.50;2.30;;;13.20;99.90;;;;;;5088739;28;20741;-76
2022/10/24 02:29:01;;;;;;;2.55;2.35;;;13.20;99.90;;;;;;5089709;28;20217;-76
2022/10/24 02:31:34;;;;;;;2.58;2.38;;;13.20;99.90;;;;;;5086039;28;20586;-74
2022/10/24 02:34:03;;;;;;;2.63;2.42;;;13.20;99.90;;;;;;5085513;28;20219;-75
2022/10/24 02:36:33;;;;;;;2.95;2.75;;;13.30;99.90;;;;;;5070872;28;20225;-78
2022/10/24 02:39:02;;;;;;;2.70;2.50;;;13.20;99.90;;;;;;5070788;28;20217;-76
2022/10/24 02:41:32;;;;;;;3.00;2.80;;;13.20;99.90;;;;;;5088533;28;20224;-77
2022/10/24 02:44:02;;;;;;;2.50;2.30;;;13.20;99.90;;;;;;5086226;28;20599;-75
2022/10/24 02:46:32;;;;;;;2.63;2.42;;;13.20;99.90;;;;;;5075533;28;20217;-74
2022/10/24 02:49:02;;;;;;;2.90;2.50;;;13.10;99.90;;;;;;5084633;28;20213;-73
2022/10/24 02:51:32;;;;;;;2.70;2.50;;;13.10;99.90;;;;;;5069299;28;20217;-77
2022/10/24 02:54:04;;;;;;;2.78;2.58;;;13.10;99.90;;;;;;5088613;28;20205;-77
2022/10/24 02:56:31;;;;;;;2.80;2.60;;;13.10;99.90;;;;;;5087033;28;20627;-76
2022/10/24 02:58:59;;;;;;;2.72;2.53;;;13.10;99.90;;;;;;5088657;28;20561;-76
2022/10/24 03:01:26;;;;;;;2.83;2.63;;;13.00;99.90;;;;;;5070871;28;20232;-75
2022/10/24 03:03:55;;;;;;;2.80;2.60;;;13.00;99.90;;;;;;5090906;28;20209;-79
2022/10/24 03:06:23;;;;;;;2.30;2.20;;;12.90;99.90;;;;;;5089070;28;20695;-78
2022/10/24 03:08:51;;;;;;;2.88;2.67;;;12.90;99.90;;;;;;5072398;28;20222;-76
2022/10/24 03:11:19;;;;;;;2.47;2.28;;;12.90;99.90;;;;;;5088049;28;20215;-76
2022/10/24 03:13:47;;;;;;;2.58;2.38;;;12.90;99.90;;;;;;5054271;28;20255;-78
2022/10/24 03:16:14;;;;;;;2.45;2.25;;;12.80;99.90;;;;;;5076381;28;20228;-74
2022/10/24 03:18:41;;;;;;;2.40;2.20;;;12.80;99.90;;;;;;5088009;28;20209;-74
2022/10/24 03:21:13;;;;;;;2.75;2.55;;;12.80;99.90;;;;;;5075362;28;20213;-86
2022/10/24 03:23:41;;;;;;;2.55;2.35;;;12.90;99.90;;;;;;5099862;28;20201;-87
2022/10/24 03:26:08;;;;;;;2.85;2.67;;;12.90;99.90;;;;;;5096820;28;20220;-81
2022/10/24 03:28:36;;;;;;;2.53;2.42;;;12.90;99.90;;;;;;5088019;28;20229;-83
2022/10/24 03:31:04;;;;;;;2.83;2.63;;;12.90;99.90;;;;;;5078967;28;20217;-83
2022/10/24 03:33:32;;;;;;;2.58;2.20;;;12.90;99.90;;;;;;5083579;28;20194;-79
2022/10/24 03:35:59;;;;;;;2.85;2.60;;;12.90;99.90;;;;;;5097664;28;20217;-79
2022/10/24 03:38:29;;;;;;;3.00;2.70;;;13.00;99.90;;;;;;5078312;28;20217;-79
2022/10/24 03:40:57;;;;;;;2.78;2.55;;;13.00;99.90;;;;;;5077587;28;20228;-79
2022/10/24 03:43:24;;;;;;;3.00;2.80;;;13.00;99.90;;;;;;5067417;28;20198;-80
2022/10/24 03:45:52;;;;;;;2.60;2.40;;;13.00;99.90;;;;;;5086253;28;20221;-79
2022/10/24 03:48:20;;;;;;;3.92;2.72;;;13.00;99.90;;;;;;5091003;28;20217;-80
2022/10/24 03:50:47;;;;;;;2.67;2.47;;;13.00;99.90;;;;;;5084204;28;20225;-78
2022/10/24 03:53:15;;;;;;;2.85;2.65;;;13.00;99.90;;;;;;5090530;28;20189;-79
2022/10/24 03:55:44;;;;;;;2.63;2.42;;;13.00;99.90;;;;;;5091855;28;20210;-81
2022/10/24 03:58:11;;;;;;;2.78;2.58;;;13.00;99.90;;;;;;5080385;28;20214;-79
2022/10/24 04:00:40;;;;;;;2.50;2.30;;;13.00;99.90;;;;;;5090426;28;20233;-79
2022/10/24 04:03:08;;;;;;;2.67;2.42;;;13.10;99.90;;;;;;5093574;28;20224;-79
2022/10/24 04:05:36;;;;;;;2.83;2.25;;;13.00;99.90;;;;;;5091418;28;20225;-79
2022/10/24 04:08:04;;;;;;;2.90;2.60;;;13.10;99.90;;;;;;5090205;28;20221;-79
2022/10/24 04:10:32;;;;;;;2.85;2.65;;;13.10;99.90;;;;;;5075670;28;20690;-80
2022/10/24 04:13:01;;;;;;;3.03;2.83;;;13.10;99.90;;;;;;5076950;28;20276;-80
2022/10/24 04:15:28;;;;;;;2.78;2.58;;;13.10;99.90;;;;;;5063291;28;20256;-78
2022/10/24 04:17:56;;;;;;;3.10;2.90;;;13.10;99.90;;;;;;5093183;28;20717;-80
2022/10/24 04:20:25;;;;;;;2.95;2.75;;;13.00;99.90;;;;;;5082884;28;20213;-78
2022/10/24 04:23:02;;;;;;;2.97;2.63;;;13.00;99.90;;;;;;5101970;28;20194;-90
2022/10/24 04:25:29;;;;;;;2.85;2.65;;;13.00;99.90;;;;;;5102799;28;20594;-82
2022/10/24 04:27:56;;;;;;;2.45;2.35;;;13.00;99.90;;;;;;5099745;28;20221;-82
2022/10/24 04:30:29;;;;;;;4.53;3.17;;;13.10;99.90;;;;;;5100091;28;20220;-80
2022/10/24 04:32:56;;;;;;;3.95;2.63;;;13.00;99.90;;;;;;5102950;28;20185;-79
2022/10/24 04:35:25;;;;;;;3.38;2.60;;;13.10;99.90;;;;;;5101127;28;20221;-80
2022/10/24 04:37:53;;;;;;;2.90;2.60;;;13.10;99.90;;;;;;5100679;28;20296;-78
2022/10/24 04:40:21;;;;;;;3.15;2.58;;;13.10;99.90;;;;;;5081910;28;20213;-78
2022/10/24 04:42:48;;;;;;;2.72;2.53;;;13.10;99.90;;;;;;5074276;28;20595;-79
2022/10/24 04:45:17;;;;;;;2.88;2.67;;;13.10;99.90;;;;;;5093703;28;20275;-80
2022/10/24 04:47:49;;;;;;;3.00;2.80;;;13.10;99.90;;;;;;5069587;28;20292;-81
2022/10/24 04:50:17;;;;;;;2.63;2.42;;;13.10;99.90;;;;;;5087678;28;20826;-78
2022/10/24 04:52:44;;;;;;;2.92;2.72;;;13.10;99.90;;;;;;5102113;28;20610;-80
2022/10/24 04:55:12;;;;;;;4.28;3.88;;;13.10;99.90;;;;;;5082615;28;20209;-82
2022/10/24 04:57:40;;;;;;;4.50;4.00;;;13.10;99.90;;;;;;5098826;28;20436;-79
2022/10/24 05:00:10;;;;;;;5.88;4.25;;;13.00;99.90;;;;;;5065633;28;20221;-80
2022/10/24 05:02:43;;;;;;;4.43;4.03;;;13.00;99.90;;;;;;5101911;28;20205;-81
2022/10/24 05:05:12;;;;;;;4.78;4.07;;;13.00;99.90;;;;;;5094324;28;20214;-79
2022/10/24 05:07:41;;;;;;;5.20;4.70;;;12.90;99.90;;;;;;5102717;28;20218;-78
2022/10/24 05:10:09;;;;;;;4.30;3.90;;;12.90;99.90;;;;;;5099250;28;20230;-80
2022/10/24 05:12:38;;;;;;;4.43;4.05;;;12.90;99.90;;;;;;5102115;28;20205;-79
2022/10/24 05:15:07;;;;;;;3.90;3.60;;;12.90;99.90;;;;;;5106111;28;20217;-79
2022/10/24 05:17:35;;;;;;;4.05;3.75;;;12.80;99.90;;;;;;5107485;28;20236;-80
2022/10/24 05:20:03;;;;;;;4.72;4.32;;;12.80;99.90;;;;;;5094788;28;20213;-80
2022/10/24 05:22:32;;;;;;;4.60;4.15;;;12.80;99.90;;;;;;5095494;28;20220;-80
2022/10/24 05:24:59;;;;;;;3.65;3.35;;;12.90;99.90;;;;;;5093227;28;20218;-80
2022/10/24 05:27:27;;;;;;;3.58;3.28;;;12.80;99.90;;;;;;5080742;28;20694;-81
2022/10/24 05:29:56;;;;;;;3.50;3.20;;;12.80;99.90;;;;;;5053068;28;20267;-83
2022/10/24 05:32:25;;;;;;;3.90;3.15;;;12.80;99.90;;;;;;5093167;28;20197;-84
2022/10/24 05:34:53;;;;;;;3.03;2.80;;;12.80;99.90;;;;;;5100944;28;20217;-86
2022/10/24 05:37:21;;;;;;;3.35;3.05;;;12.80;99.90;;;;;;5095969;28;20236;-86
2022/10/24 05:39:50;;;;;;;15.52;13.15;;;12.80;99.90;;;;;;5100622;28;20304;-87
2022/10/24 05:42:17;;;;;;;23.58;18.83;;;12.80;99.90;;;;;;5104129;28;20208;-89
2022/10/24 05:44:45;;;;;;;18.23;14.38;;;12.90;99.90;;;;;;5097934;28;20232;-87
2022/10/24 05:47:12;;;;;;;14.88;12.10;;;12.80;99.90;;;;;;5101607;28;20189;-86
2022/10/24 05:49:39;;;;;;;10.05;9.05;;;12.90;99.90;;;;;;5103613;28;20232;-88
2022/10/24 05:52:07;;;;;;;7.97;7.18;;;12.90;99.90;;;;;;5101311;28;20212;-89
2022/10/24 05:54:34;;;;;;;6.93;6.22;;;12.90;99.90;;;;;;5090650;28;20202;-84
2022/10/24 05:57:03;;;;;;;5.90;5.30;;;12.90;99.90;;;;;;5101276;28;20205;-86
2022/10/24 05:59:31;;;;;;;4.63;4.22;;;12.90;99.90;;;;;;5103218;28;20186;-88
2022/10/24 06:01:59;;;;;;;4.53;4.07;;;12.90;99.90;;;;;;5103433;28;20663;-89
2022/10/24 06:04:27;;;;;;;3.85;3.55;;;12.90;99.90;;;;;;5101860;28;20202;-87
2022/10/24 06:06:54;;;;;;;4.13;3.83;;;13.00;99.90;;;;;;5103998;28;21333;-85
2022/10/24 06:09:22;;;;;;;3.42;3.13;;;13.00;99.90;;;;;;5103169;28;20189;-79
2022/10/24 06:11:51;;;;;;;3.50;3.20;;;13.00;99.90;;;;;;5093092;28;20198;-79
2022/10/24 06:14:20;;;;;;;3.03;2.60;;;13.10;99.90;;;;;;5091227;28;20578;-80
2022/10/24 06:16:48;;;;;;;2.67;2.47;;;13.10;99.90;;;;;;5089921;28;20244;-78
2022/10/24 06:19:15;;;;;;;2.60;2.40;;;13.10;99.90;;;;;;5072279;28;20240;-78
2022/10/24 06:21:42;;;;;;;2.65;2.45;;;13.20;99.90;;;;;;5084425;28;20218;-79
2022/10/24 06:24:10;;;;;;;3.10;2.90;;;13.20;99.90;;;;;;5087409;28;20221;-80
2022/10/24 06:26:38;;;;;;;5.18;3.85;;;13.20;99.90;;;;;;5087406;28;20222;-79
2022/10/24 06:29:05;;;;;;;4.03;3.70;;;13.20;99.90;;;;;;5087126;28;20217;-81
2022/10/24 06:31:36;;;;;;;4.28;3.50;;;13.20;99.90;;;;;;5089337;28;20229;-80
2022/10/24 06:34:04;;;;;;;4.75;3.95;;;13.30;99.90;;;;;;5088576;28;20192;-81
2022/10/24 06:36:34;;;;;;;5.05;4.55;;;13.30;99.90;;;;;;5088102;28;21524;-77
2022/10/24 06:39:02;;;;;;;6.43;5.72;;;13.40;99.90;;;;;;5093373;28;20747;-79
2022/10/24 06:41:30;;;;;;;16.83;10.68;;;13.50;99.90;;;;;;5076967;28;20216;-79
2022/10/24 06:44:05;;;;;;;14.13;10.30;;;13.50;99.90;;;;;;5090993;28;20231;-86
2022/10/24 06:46:34;;;;;;;7.85;6.63;;;13.60;99.90;;;;;;5103766;28;20221;-88
2022/10/24 06:49:02;;;;;;;5.90;5.30;;;13.60;99.90;;;;;;5101898;28;20318;-88
2022/10/24 06:51:29;;;;;;;6.75;4.97;;;13.70;99.90;;;;;;5061685;28;20616;-79
2022/10/24 06:53:58;;;;;;;5.82;4.82;;;13.60;99.90;;;;;;5092812;28;20193;-77
2022/10/24 06:56:27;;;;;;;4.78;4.03;;;13.70;99.90;;;;;;5093890;28;20268;-80
2022/10/24 06:58:54;;;;;;;4.28;3.70;;;13.80;99.90;;;;;;5095477;28;20225;-79
2022/10/24 07:01:23;;;;;;;3.80;3.38;;;13.90;99.90;;;;;;5092304;28;20217;-80
2022/10/24 07:03:58;;;;;;;3.05;2.85;;;14.10;99.90;;;;;;5094709;28;20856;-79
2022/10/24 07:06:30;;;;;;;3.38;3.08;;;14.30;99.90;;;;;;5100977;28;20237;-80
2022/10/24 07:09:00;;;;;;;4.30;3.17;;;14.60;99.90;;;;;;5074698;28;20217;-82
2022/10/24 07:11:29;;;;;;;3.40;3.10;;;14.80;99.90;;;;;;5095832;28;20217;-80
2022/10/24 07:13:57;;;;;;;3.60;3.30;;;14.90;99.90;;;;;;5089271;28;20280;-78
2022/10/24 07:16:26;;;;;;;3.75;3.22;;;15.10;99.90;;;;;;5086934;28;20273;-82
2022/10/24 07:18:53;;;;;;;3.95;3.65;;;15.30;99.90;;;;;;5082771;28;20229;-81
2022/10/24 07:21:25;;;;;;;4.28;3.88;;;15.40;99.90;;;;;;5090641;28;20227;-78
2022/10/24 07:23:54;;;;;;;4.03;3.63;;;15.60;99.90;;;;;;5089308;28;20214;-81
2022/10/24 07:26:23;;;;;;;3.60;3.28;;;15.70;99.90;;;;;;5071901;28;20645;-80
2022/10/24 07:28:54;;;;;;;3.00;2.70;;;15.70;99.90;;;;;;5086319;28;20243;-77
2022/10/24 07:31:23;;;;;;;2.88;2.65;;;15.60;99.90;;;;;;5084084;28;20217;-77
2022/10/24 07:33:52;;;;;;;3.67;2.70;;;15.30;99.90;;;;;;5086725;28;20208;-77
2022/10/24 07:36:21;;;;;;;2.75;2.55;;;15.10;99.90;;;;;;5085644;28;20224;-77
2022/10/24 07:38:51;;;;;;;2.47;2.28;;;14.90;99.90;;;;;;5088471;28;20218;-81
2022/10/24 07:41:19;;;;;;;3.00;2.80;;;14.90;99.90;;;;;;5077717;28;20792;-78
2022/10/24 07:43:47;;;;;;;2.67;2.47;;;15.00;99.90;;;;;;5066172;28;20213;-80
2022/10/24 07:46:17;;;;;;;2.90;2.63;;;15.10;99.90;;;;;;5085628;28;20225;-78
2022/10/24 07:48:45;;;;;;;2.95;2.75;;;15.20;99.90;;;;;;5088508;28;20243;-79
2022/10/24 07:51:14;;;;;;;3.00;2.70;;;15.30;99.90;;;;;;5077120;28;20224;-78
2022/10/24 07:53:44;;;;;;;2.80;2.60;;;15.40;99.90;;;;;;5079383;28;20847;-81
2022/10/24 07:56:17;;;;;;;2.90;2.70;;;16.00;99.90;;;;;;5096856;28;20874;-83
2022/10/24 07:58:47;;;;;;;4.05;2.70;;;16.50;99.90;;;;;;5102720;28;20271;-81
2022/10/24 08:01:18;;;;;;;3.55;2.67;;;16.90;99.90;;;;;;5094532;28;20214;-89
2022/10/24 08:03:48;;;;;;;3.05;2.83;;;17.30;99.90;;;;;;5104473;28;20201;-81
2022/10/24 08:06:18;;;;;;;4.95;3.20;;;17.70;99.90;;;;;;5067662;28;20445;-81
2022/10/24 08:08:47;;;;;;;2.80;2.60;;;17.80;99.90;;;;;;5099226;28;20258;-78
2022/10/24 08:11:20;;;;;;;3.53;3.00;;;17.30;99.90;;;;;;5080090;28;20224;-82
2022/10/24 08:13:48;;;;;;;3.45;2.92;;;17.10;99.90;;;;;;5077761;28;20206;-78
2022/10/24 08:16:21;;;;;;;3.40;3.10;;;17.20;99.90;;;;;;5079407;28;20224;-80
2022/10/24 08:18:50;;;;;;;4.13;3.42;;;17.40;99.90;;;;;;5082502;28;20239;-78
2022/10/24 08:21:19;;;;;;;3.00;2.80;;;17.70;99.90;;;;;;5058946;28;20220;-77
2022/10/24 08:23:52;;;;;;;3.58;2.92;;;18.00;99.90;;;;;;5079830;28;20692;-78
2022/10/24 08:26:23;;;;;;;2.90;2.70;;;18.50;99.90;;;;;;5093025;28;20741;-79
2022/10/24 08:28:54;;;;;;;4.03;2.88;;;18.40;99.90;;;;;;5088984;28;20259;-78
2022/10/24 08:31:23;;;;;;;3.30;3.00;;;18.20;99.90;;;;;;5091364;28;20221;-79
2022/10/24 08:33:53;;;;;;;2.80;2.60;;;18.40;99.90;;;;;;5104133;28;20186;-79
2022/10/24 08:36:25;;;;;;;2.90;2.70;;;18.40;99.90;;;;;;5096025;28;20308;-79
2022/10/24 08:38:53;;;;;;;2.60;2.40;;;18.30;99.90;;;;;;5093349;28;20225;-79
2022/10/24 08:41:30;;;;;;;2.65;2.45;;;18.20;99.90;;;;;;5081690;28;20214;-78
2022/10/24 08:44:00;;;;;;;2.80;2.60;;;17.80;99.90;;;;;;5071443;28;20764;-79
2022/10/24 08:46:43;;;;;;;3.67;2.95;;;17.50;99.90;;;;;;5084895;28;20227;-78
2022/10/24 08:49:20;;;;;;;3.00;2.60;;;17.40;99.90;;;;;;5080548;28;20283;-78
2022/10/24 08:51:52;;;;;;;2.83;2.53;;;17.60;99.90;;;;;;5083670;28;20517;-78
2022/10/24 08:54:24;;;;;;;3.92;2.47;;;17.90;99.90;;;;;;5095014;28;20198;-78
2022/10/24 08:56:58;;;;;;;3.53;2.80;;;17.80;99.90;;;;;;5096321;28;20221;-78
2022/10/24 08:59:30;;;;;;;2.65;2.28;;;17.70;99.90;;;;;;5089271;28;20192;-80
2022/10/24 09:02:04;;;;;;;3.75;2.60;;;17.60;99.90;;;;;;5090421;28;20193;-78
2022/10/24 09:04:41;;;;;;;4.15;2.67;;;17.50;99.90;;;;;;5092008;28;20212;-78
2022/10/24 09:07:16;;;;;;;2.95;2.75;;;17.90;99.90;;;;;;5093501;28;20247;-77
2022/10/24 09:09:48;;;;;;;2.90;2.60;;;18.30;99.90;;;;;;5086845;28;20221;-77
2022/10/24 09:12:20;;;;;;;4.95;2.83;;;18.80;99.90;;;;;;5086623;28;20222;-77
2022/10/24 09:14:55;;;;;;;4.47;2.45;;;19.30;99.90;;;;;;5087363;28;20229;-78
2022/10/24 09:17:24;;;;;;;3.38;2.50;;;19.60;99.90;;;;;;5070481;28;20576;-77
2022/10/24 09:19:55;;;;;;;3.30;2.63;;;19.70;99.90;;;;;;5086829;28;20218;-77
2022/10/24 09:22:27;;;;;;;4.47;3.28;;;19.70;99.90;;;;;;5074037;28;20194;-76
2022/10/24 09:24:58;;;;;;;4.95;2.75;;;19.50;99.90;;;;;;5074571;28;20229;-77
2022/10/24 09:27:30;;;;;;;3.00;2.60;;;18.90;99.90;;;;;;5070990;28;20229;-77
2022/10/24 09:30:00;;;;;;;3.67;2.40;;;18.30;99.90;;;;;;5096080;28;20200;-90
2022/10/24 09:32:31;;;;;;;3.28;2.50;;;18.00;99.90;;;;;;5109982;28;20220;-80
2022/10/24 09:35:00;;;;;;;3.55;2.88;;;17.80;99.90;;;;;;5093831;28;20250;-79
2022/10/24 09:37:44;;;;;;;3.85;2.42;;;17.90;99.90;;;;;;5091349;28;20229;-84
2022/10/24 09:40:19;;;;;;;2.83;2.53;;;17.90;99.90;;;;;;5108190;28;20355;-88
2022/10/24 09:43:01;;;;;;;3.05;2.60;;;17.90;99.90;;;;;;5113263;28;20191;-82
2022/10/24 09:45:46;;;;;;;4.47;3.00;;;18.00;99.90;;;;;;5107063;28;20221;-84
2022/10/24 09:48:23;;;;;;;3.88;2.63;;;18.20;99.90;;;;;;5101835;28;20229;-82
2022/10/24 09:50:53;;;;;;;3.15;2.45;;;18.20;99.90;;;;;;5096451;28;20225;-85
2022/10/24 09:53:31;;;;;;;2.88;2.03;;;18.10;99.90;;;;;;5090452;28;20201;-81
2022/10/24 09:56:01;;;;;;;2.42;2.22;;;18.20;99.90;;;;;;5089415;28;20221;-81
2022/10/24 09:58:32;;;;;;;2.78;2.50;;;18.40;99.90;;;;;;5077107;28;20248;-82
2022/10/24 10:01:06;;;;;;;3.40;2.22;;;18.40;99.90;;;;;;5095949;28;20248;-85
2022/10/24 10:06:21;;;;;;;3.90;2.70;;;19.10;99.90;;;;;;5047191;22;20252;-79
2022/10/24 10:08:51;;;;;;;3.25;2.60;;;19.40;99.90;;;;;;4988177;28;20204;-79
2022/10/24 10:11:26;;;;;;;3.03;2.28;;;19.40;99.90;;;;;;4993987;28;20307;-80
2022/10/24 10:13:54;;;;;;;3.35;2.63;;;19.10;99.90;;;;;;4987746;28;20300;-77
2022/10/24 10:16:24;;;;;;;2.85;2.65;;;18.80;99.90;;;;;;4988921;28;20256;-80
2022/10/24 10:19:00;;;;;;;2.58;2.35;;;18.50;99.90;;;;;;4989215;28;20197;-84
2022/10/24 10:21:27;;;;;;;2.70;2.50;;;18.40;99.90;;;;;;4976804;28;20726;-77
2022/10/24 10:23:55;;;;;;;3.58;2.78;;;18.70;99.90;;;;;;4980838;28;20577;-77
2022/10/24 10:26:26;;;;;;;3.65;2.58;;;19.00;99.90;;;;;;4979306;28;20224;-77
2022/10/24 10:29:04;;;;;;;3.22;2.80;;;19.30;99.90;;;;;;4982292;28;20204;-78
2022/10/24 10:31:39;;;;;;;3.55;2.67;;;19.70;99.90;;;;;;4978776;28;20244;-77
2022/10/24 10:34:20;;;;;;;3.00;2.50;;;19.80;99.90;;;;;;4980204;28;20201;-77
2022/10/24 10:37:10;;;;;;;3.75;2.60;;;20.10;99.90;;;;;;4977633;28;20225;-76
2022/10/24 10:39:56;;;;;;;7.68;3.38;;;20.10;99.90;;;;;;4973934;28;20197;-78
2022/10/24 10:42:33;;;;;;;3.45;2.50;;;19.60;99.90;;;;;;4976725;28;20245;-77
2022/10/24 10:45:15;;;;;;;3.03;2.83;;;19.40;99.90;;;;;;4974012;28;20225;-78
2022/10/24 10:47:51;;;;;;;3.63;2.92;;;19.30;99.90;;;;;;4980224;28;20292;-79
2022/10/24 10:50:28;;;;;;;2.92;2.72;;;19.20;99.90;;;;;;4977188;28;20232;-78
2022/10/24 10:53:00;;;;;;;5.55;2.80;;;19.10;99.90;;;;;;4979772;28;20225;-76
2022/10/24 10:55:35;;;;;;;2.80;2.53;;;19.10;99.90;;;;;;4972260;28;20224;-79
2022/10/24 10:58:13;;;;;;;2.53;2.33;;;19.10;99.90;;;;;;4980070;28;20211;-79
2022/10/24 11:00:51;;;;;;;3.33;3.03;;;19.20;99.90;;;;;;4977107;28;20217;-76
2022/10/24 11:03:33;;;;;;;4.50;2.75;;;19.30;99.90;;;;;;4980865;28;20707;-75
2022/10/24 11:06:22;;;;;;;3.38;2.70;;;19.30;99.90;;;;;;4979854;28;20280;-76
2022/10/24 11:09:19;;;;;;;3.33;2.47;;;19.20;99.90;;;;;;4978667;28;20197;-77
2022/10/24 11:11:48;;;;;;;3.88;3.30;;;19.40;99.90;;;;;;4982857;28;20325;-78
2022/10/24 11:14:26;;;;;;;3.55;2.90;;;19.60;99.90;;;;;;4981353;28;20193;-79
2022/10/24 11:16:58;;;;;;;5.07;3.08;;;19.80;99.90;;;;;;4982986;28;20224;-77
2022/10/24 11:19:32;;;;;;;4.85;3.40;;;20.20;99.90;;;;;;4988449;28;20197;-77
2022/10/24 11:22:03;;;;;;;5.38;3.63;;;20.40;99.90;;;;;;4977712;28;20197;-79
2022/10/24 11:24:39;;;;;;;3.95;3.15;;;20.60;99.90;;;;;;4982253;28;20204;-78
2022/10/24 11:27:13;;;;;;;4.57;3.67;;;20.80;99.90;;;;;;4984271;28;20204;-77
2022/10/24 11:29:48;;;;;;;3.85;3.08;;;20.90;99.90;;;;;;4976045;28;20233;-77
2022/10/24 11:32:23;;;;;;;4.95;3.63;;;20.90;99.90;;;;;;4981853;28;20224;-79
2022/10/24 11:34:57;;;;;;;4.63;3.65;;;20.80;99.90;;;;;;4984565;28;20490;-77
2022/10/24 11:37:28;;;;;;;4.82;3.75;;;20.90;99.90;;;;;;4985797;28;20193;-76
2022/10/24 11:39:59;;;;;;;4.93;3.15;;;21.00;99.90;;;;;;4981931;28;20222;-78
2022/10/24 11:42:31;;;;;;;7.05;4.05;;;20.90;99.90;;;;;;4981101;28;20217;-78
2022/10/24 11:45:04;;;;;;;8.27;3.90;;;20.90;99.90;;;;;;4981421;28;20597;-78
2022/10/24 11:48:03;;;;;;;6.50;3.80;;;20.50;99.90;;;;;;4982337;28;20201;-78
2022/10/24 11:50:37;;;;;;;4.93;3.28;;;20.20;99.90;;;;;;4980943;28;20221;-79
2022/10/24 11:53:14;;;;;;;6.28;3.67;;;20.20;99.90;;;;;;4981924;28;20220;-77
2022/10/24 11:55:47;;;;;;;4.95;3.28;;;20.00;99.90;;;;;;4979708;28;20555;-78
2022/10/24 11:58:18;;;;;;;4.30;3.42;;;19.80;99.90;;;;;;4983739;28;20200;-79
2022/10/24 12:01:10;;;;;;;4.55;3.42;;;19.60;99.90;;;;;;4982772;28;20221;-79
2022/10/24 12:04:01;;;;;;;3.70;2.88;;;19.60;99.90;;;;;;4981561;28;20793;-79
2022/10/24 12:06:53;;;;;;;4.13;3.40;;;19.60;99.90;;;;;;4986223;28;20227;-79
2022/10/24 12:09:52;;;;;;;7.43;3.97;;;19.60;99.90;;;;;;4963177;28;20197;-78
2022/10/24 12:12:36;;;;;;;4.13;3.67;;;19.70;99.90;;;;;;4986164;28;20236;-79
2022/10/24 12:15:22;;;;;;;3.92;3.20;;;19.60;99.90;;;;;;4983060;28;20229;-78
2022/10/24 12:18:05;;;;;;;3.88;3.45;;;19.50;99.90;;;;;;4984598;28;20234;-80
2022/10/24 12:20:34;;;;;;;4.05;3.65;;;19.40;99.90;;;;;;4980215;28;20623;-78
2022/10/24 12:23:02;;;;;;;5.10;3.75;;;19.30;99.90;;;;;;4984116;28;20688;-79
2022/10/24 12:25:32;;;;;;;4.13;3.50;;;19.20;99.90;;;;;;4984886;28;20244;-78
2022/10/24 12:28:02;;;;;;;3.80;3.08;;;19.20;99.90;;;;;;4983242;28;20197;-79
2022/10/24 12:30:32;;;;;;;4.72;3.15;;;19.30;99.90;;;;;;4983148;28;20710;-78
2022/10/24 12:33:09;;;;;;;3.13;2.78;;;19.40;99.90;;;;;;4986579;28;20232;-79
2022/10/24 12:35:50;;;;;;;5.30;3.13;;;19.50;99.90;;;;;;4980770;28;20729;-79
2022/10/24 12:39:05;;;;;;;3.13;2.83;;;19.50;99.90;;;;;;4983654;28;20203;-79
2022/10/24 12:41:42;;;;;;;5.93;4.30;;;19.50;99.90;;;;;;4983546;28;20244;-76
2022/10/24 12:44:37;;;;;;;3.92;3.20;;;19.40;99.90;;;;;;4982852;28;20540;-78
2022/10/24 12:47:29;;;;;;;4.97;3.30;;;19.20;99.90;;;;;;4982585;28;20530;-78
2022/10/24 12:49:58;;;;;;;5.07;3.50;;;19.00;99.90;;;;;;4983358;28;20729;-78
2022/10/24 12:53:10;;;;;;;5.80;3.72;;;18.90;99.90;;;;;;4985213;28;20220;-78
2022/10/24 12:56:12;;;;;;;5.15;3.30;;;18.60;99.90;;;;;;4944644;28;20711;-79
2022/10/24 12:58:41;;;;;;;3.92;3.50;;;18.50;99.90;;;;;;4986027;28;20203;-78
2022/10/24 13:01:12;;;;;;;3.22;2.92;;;18.40;99.90;;;;;;4984772;28;20221;-79
2022/10/24 13:04:23;;;;;;;3.95;3.55;;;18.50;99.90;;;;;;4980369;28;20217;-80
2022/10/24 13:07:07;;;;;;;5.47;3.92;;;18.20;99.90;;;;;;4965076;28;20248;-79
2022/10/24 13:09:45;;;;;;;5.95;3.85;;;18.00;99.90;;;;;;4983762;28;20425;-79
2022/10/24 13:12:32;;;;;;;5.15;3.88;;;18.00;99.90;;;;;;4985865;28;20703;-79
2022/10/24 13:15:21;;;;;;;4.45;3.38;;;17.90;99.90;;;;;;4984129;28;20212;-79